【羽田空港本店】夕焼けなう。

LUXURY FLIGHT

080-7560-1817

羽田空港本店: 所在地: 東京都大田区羽田空港3-3-2    セントレア店: 所在地: 愛知県常滑市セントレア1-1      HICityファイター店: 所在地: 東京都大田区羽田空港1-1-4
           第1旅客ターミナル5階                  FLIGHT OF DREAMS FLIGHT PARK                 HANEDA INNOVATION CITY ZONE-J 2-5
      営業時間: 10:00~20:00 定休日: 年中無休         営業時間: 10:00~20:00 定休日: 年中無休             営業時間: 10:00~20:00 定休日: 年中無休
      電話番号: 080-7560-1817                  電話番号: 080-4945-5666                     電話番号: 03-5579-7980

lv

【羽田空港本店】夕焼けなう。

STAFF BLOG

2020/06/10 【羽田空港本店】夕焼けなう。

こんにちはーーーーーーー

 

たまたま窓際から見た夕焼けが綺麗だったので…

撮ってしまいました!!!!

 

羽田近郊の皆様、ただいまいい感じに夕日が見えております!!!

 

img_6092

RJTT 100930Z 21019KT 9999 FEW030 SCT100 BKN170 25/20 Q1013

TEMPO 20022G32KT

 

 

あっ、METAR添えときます。

風が少々強めです。

 

取り急ぎですみません!!!

 

 

お邪魔しました!!!!

それではまた!!!

 

いつも本当にありがとございます。

 

 

「感謝」

 

 

 

 

 

TOP